Time;durP1;ratioP1;P1;durP2;ratioP2;P2;SDS_P1;SDS_P2;PMS_P1;PMS_P2;Temp;Humidity;BMP_temperature;BMP_pressure;BME280_temperature;BME280_humidity;BME280_pressure;Samples;Min_cycle;Max_cycle;Signal;HPM_P1;HPM_P2
2022/02/07 00:01:39;;;;;;;2.40;1.13;;;8.40;1.00;;;;;;5051092;28;20230;-76
2022/02/07 00:04:06;;;;;;;4.93;1.30;;;8.50;1.00;;;;;;5051972;28;20290;-76
2022/02/07 00:06:34;;;;;;;2.97;1.10;;;8.50;1.00;;;;;;5051513;28;20325;-76
2022/02/07 00:09:00;;;;;;;1.50;1.07;;;8.60;1.00;;;;;;5051879;28;20199;-76
2022/02/07 00:11:27;;;;;;;2.40;1.73;;;8.60;1.00;;;;;;5052030;28;20203;-81
2022/02/07 00:13:54;;;;;;;4.83;1.10;;;8.60;1.00;;;;;;5052128;28;20203;-77
2022/02/07 00:16:21;;;;;;;3.50;1.10;;;8.60;1.00;;;;;;5051525;28;20198;-79
2022/02/07 00:18:50;;;;;;;5.00;1.17;;;8.60;1.00;;;;;;5051435;28;20203;-78
2022/02/07 00:21:17;;;;;;;1.83;0.97;;;8.70;1.00;;;;;;5051696;28;20229;-81
2022/02/07 00:23:44;;;;;;;4.57;1.17;;;8.70;1.00;;;;;;5051225;28;20267;-78
2022/02/07 00:26:10;;;;;;;4.83;1.03;;;8.60;1.00;;;;;;5051411;28;20694;-77
2022/02/07 00:28:38;;;;;;;2.50;1.10;;;8.70;1.00;;;;;;5050853;28;20207;-78
2022/02/07 00:31:05;;;;;;;2.87;1.07;;;8.60;1.00;;;;;;5051498;28;20679;-78
2022/02/07 00:33:32;;;;;;;2.87;0.93;;;8.60;1.00;;;;;;5051219;28;20202;-78
2022/02/07 00:36:01;;;;;;;4.20;1.10;;;8.60;1.00;;;;;;5051333;28;20202;-78
2022/02/07 00:38:31;;;;;;;3.07;1.20;;;8.60;1.00;;;;;;5051107;28;20221;-78
2022/02/07 00:41:14;;;;;;;2.20;1.17;;;8.60;1.00;;;;;;5051749;28;20230;-76
2022/02/07 00:43:43;;;;;;;1.20;1.10;;;8.50;1.00;;;;;;5050694;28;20210;-78
2022/02/07 00:46:12;;;;;;;1.77;1.17;;;8.30;1.00;;;;;;5051205;28;20230;-78
2022/02/07 00:48:40;;;;;;;7.23;1.63;;;8.10;1.00;;;;;;5050832;28;20207;-78
2022/02/07 00:51:10;;;;;;;2.63;1.03;;;8.10;1.00;;;;;;5051078;28;20249;-81
2022/02/07 00:53:38;;;;;;;3.67;1.20;;;8.00;1.00;;;;;;5051077;28;20249;-78
2022/02/07 00:56:06;;;;;;;3.87;1.10;;;8.10;1.00;;;;;;5051152;28;20207;-77
2022/02/07 00:58:33;;;;;;;3.37;1.97;;;8.20;1.00;;;;;;5050531;28;20199;-78
2022/02/07 01:01:00;;;;;;;2.77;0.93;;;8.30;1.00;;;;;;5050873;28;20203;-78
2022/02/07 01:03:27;;;;;;;2.10;1.07;;;8.30;1.00;;;;;;5051034;28;20203;-78
2022/02/07 01:05:55;;;;;;;5.27;1.10;;;8.40;1.00;;;;;;5050665;28;20234;-78
2022/02/07 01:08:33;;;;;;;3.90;1.23;;;8.40;1.00;;;;;;5051105;28;20294;-77
2022/02/07 01:11:08;;;;;;;4.67;1.10;;;8.40;1.00;;;;;;5050368;28;20199;-77
2022/02/07 01:13:50;;;;;;;3.07;1.67;;;8.40;1.00;;;;;;5049852;28;20666;-78
2022/02/07 01:16:37;;;;;;;3.90;1.17;;;8.40;1.00;;;;;;5050517;28;20619;-78
2022/02/07 01:22:09;;;;;;;3.03;1.50;;;8.40;1.00;;;;;;5050043;28;20536;-77
2022/02/07 01:47:22;;;;;;;3.40;0.87;;;8.50;1.00;;;;;;5050010;28;20245;-77
2022/02/07 01:52:47;;;;;;;2.73;1.77;;;8.50;1.00;;;;;;5050083;28;20577;-77
2022/02/07 01:55:20;;;;;;;1.50;0.77;;;8.60;1.00;;;;;;5050443;28;20689;-76
2022/02/07 01:57:49;;;;;;;2.20;0.80;;;8.60;1.00;;;;;;5049709;28;20218;-76
2022/02/07 02:00:17;;;;;;;3.03;1.70;;;8.60;1.00;;;;;;5050337;28;20586;-75
2022/02/07 02:02:45;;;;;;;2.70;1.30;;;8.60;1.00;;;;;;5050064;28;20206;-76
2022/02/07 02:05:12;;;;;;;4.50;1.20;;;8.60;1.00;;;;;;5050487;28;20272;-77
2022/02/07 02:07:40;;;;;;;2.27;1.17;;;8.60;1.00;;;;;;5049783;28;20276;-80
2022/02/07 02:10:08;;;;;;;3.23;1.20;;;8.60;1.00;;;;;;5050028;28;20203;-79
2022/02/07 02:12:42;;;;;;;2.50;1.77;;;8.60;1.00;;;;;;5049883;28;20211;-78
2022/02/07 02:15:24;;;;;;;2.17;1.27;;;8.50;1.00;;;;;;5050180;28;20255;-76
2022/02/07 02:37:15;;;;;;;3.33;0.73;;;8.10;1.00;;;;;;5053289;28;20558;-76
2022/02/07 02:45:33;;;;;;;1.10;0.80;;;8.10;1.00;;;;;;5053674;28;20278;-79
2022/02/07 02:48:04;;;;;;;1.80;0.83;;;8.20;1.00;;;;;;5053383;28;20238;-78
2022/02/07 02:50:32;;;;;;;2.47;0.90;;;8.20;1.00;;;;;;5052946;28;20297;-75
2022/02/07 02:53:02;;;;;;;2.43;0.80;;;8.20;1.00;;;;;;5053375;28;20206;-75
2022/02/07 02:55:31;;;;;;;1.93;0.90;;;8.30;1.00;;;;;;5052981;28;20670;-74
2022/02/07 02:57:59;;;;;;;1.73;1.40;;;8.40;1.00;;;;;;5053314;28;20203;-75
2022/02/07 03:00:27;;;;;;;4.20;1.30;;;8.40;1.00;;;;;;5053395;28;20731;-74
2022/02/07 03:02:53;;;;;;;2.53;1.10;;;8.40;1.00;;;;;;5053022;28;20733;-74
2022/02/07 03:05:21;;;;;;;2.40;1.00;;;8.50;1.00;;;;;;5053051;28;20203;-75
2022/02/07 03:07:48;;;;;;;1.13;1.03;;;8.60;1.00;;;;;;5052692;28;20234;-76
2022/02/07 03:10:24;;;;;;;4.13;1.43;;;8.60;1.00;;;;;;5052808;28;20199;-76
2022/02/07 03:13:07;;;;;;;3.23;0.67;;;8.60;1.00;;;;;;5052515;28;20291;-74
2022/02/07 03:18:19;;;;;;;1.40;1.10;;;8.70;1.00;;;;;;5053015;28;20299;-74
2022/02/07 03:20:46;;;;;;;1.10;0.90;;;8.70;1.00;;;;;;5052468;28;20199;-75
2022/02/07 03:23:13;;;;;;;3.00;1.00;;;8.70;1.00;;;;;;5052538;28;20257;-74
2022/02/07 03:25:40;;;;;;;1.13;0.80;;;8.70;1.00;;;;;;5052508;28;20630;-74
2022/02/07 03:28:08;;;;;;;2.73;0.63;;;8.80;1.00;;;;;;5052612;28;20238;-74
2022/02/07 03:30:36;;;;;;;3.80;0.77;;;8.70;1.00;;;;;;5052222;28;20248;-76
2022/02/07 03:33:04;;;;;;;1.23;0.90;;;8.60;1.00;;;;;;5052655;28;20207;-74
2022/02/07 03:35:32;;;;;;;2.50;0.80;;;8.50;1.00;;;;;;5051244;28;20256;-76
2022/02/07 03:37:59;;;;;;;2.60;0.93;;;8.60;1.00;;;;;;5052069;28;20670;-75
2022/02/07 03:40:26;;;;;;;0.93;0.70;;;8.50;1.00;;;;;;5052786;28;20260;-75
2022/02/07 03:42:53;;;;;;;2.87;0.97;;;8.50;1.00;;;;;;5051964;28;20612;-74
2022/02/07 03:45:21;;;;;;;3.70;1.00;;;8.50;1.00;;;;;;5052340;28;20623;-75
2022/02/07 03:47:48;;;;;;;1.53;0.90;;;8.60;1.00;;;;;;5051841;28;20714;-76
2022/02/07 03:50:15;;;;;;;7.20;0.77;;;8.70;1.00;;;;;;5052174;28;20666;-76
2022/02/07 03:52:42;;;;;;;4.70;0.77;;;8.80;1.00;;;;;;5051348;28;20202;-77
2022/02/07 03:55:09;;;;;;;1.73;0.90;;;8.90;1.00;;;;;;5052455;28;20206;-76
2022/02/07 03:57:36;;;;;;;1.53;0.90;;;8.90;1.00;;;;;;5051805;28;20202;-76
2022/02/07 04:00:06;;;;;;;5.47;0.97;;;8.90;1.00;;;;;;5052084;28;20203;-76
2022/02/07 04:02:39;;;;;;;3.97;1.00;;;9.00;1.00;;;;;;5051677;28;20282;-77
2022/02/07 04:05:28;;;;;;;2.40;0.70;;;9.00;1.00;;;;;;5051970;28;20286;-76
2022/02/07 04:07:54;;;;;;;2.23;0.67;;;9.00;1.00;;;;;;5051495;28;20238;-78
2022/02/07 04:10:22;;;;;;;1.90;0.67;;;8.90;1.00;;;;;;5051930;28;20608;-76
2022/02/07 04:12:55;;;;;;;2.83;0.73;;;8.90;1.00;;;;;;5051469;28;20211;-77
2022/02/07 04:15:22;;;;;;;2.80;0.67;;;8.80;1.00;;;;;;5051706;28;20210;-77
2022/02/07 04:17:55;;;;;;;1.27;0.73;;;8.80;1.00;;;;;;5051273;28;20268;-74
2022/02/07 04:20:22;;;;;;;2.63;0.80;;;8.80;1.00;;;;;;5051753;28;20199;-75
2022/02/07 04:22:50;;;;;;;1.77;0.87;;;8.80;1.00;;;;;;5051023;28;20598;-74
2022/02/07 04:25:17;;;;;;;5.53;0.80;;;8.80;1.00;;;;;;5051987;28;20717;-74
2022/02/07 04:27:44;;;;;;;3.13;1.00;;;8.70;1.00;;;;;;5050829;28;20230;-75
2022/02/07 04:30:11;;;;;;;2.63;0.77;;;8.80;1.00;;;;;;5051748;28;20203;-74
2022/02/07 04:32:39;;;;;;;2.37;0.80;;;8.90;1.00;;;;;;5051220;28;20203;-75
2022/02/07 04:35:08;;;;;;;5.53;1.00;;;8.90;1.00;;;;;;5051203;28;20257;-75
2022/02/07 04:37:35;;;;;;;4.53;0.70;;;9.00;1.00;;;;;;5050882;28;20215;-75
2022/02/07 04:40:02;;;;;;;4.23;2.17;;;9.10;1.00;;;;;;5051176;28;20203;-77
2022/02/07 04:42:29;;;;;;;4.80;1.33;;;9.10;1.00;;;;;;5051217;28;20203;-77
2022/02/07 04:45:12;;;;;;;5.17;0.70;;;9.10;1.00;;;;;;5051516;28;20735;-75
2022/02/07 04:47:56;;;;;;;1.90;0.70;;;9.10;1.00;;;;;;5050619;28;20325;-74
2022/02/07 04:50:33;;;;;;;2.13;0.63;;;9.10;1.00;;;;;;5050989;28;20211;-76
2022/02/07 04:53:16;;;;;;;3.17;0.70;;;9.20;1.00;;;;;;5050934;28;20289;-75
2022/02/07 04:55:48;;;;;;;2.27;1.10;;;9.10;1.00;;;;;;5050681;28;20580;-75
2022/02/07 04:58:28;;;;;;;2.83;1.30;;;9.10;99.90;;;;;;5051096;28;20211;-74
2022/02/07 05:01:08;;;;;;;3.13;0.90;;;8.90;99.90;;;;;;5051192;28;20211;-75
2022/02/07 05:03:41;;;;;;;2.50;0.80;;;8.80;1.00;;;;;;5050652;28;20206;-78
2022/02/07 05:14:22;;;;;;;1.97;0.90;;;8.50;1.00;;;;;;5050945;28;20210;-75
2022/02/07 05:16:52;;;;;;;1.50;0.63;;;8.30;1.00;;;;;;5050393;28;20202;-78
2022/02/07 05:19:19;;;;;;;1.70;0.70;;;8.30;1.00;;;;;;5050695;28;20619;-75
2022/02/07 05:21:48;;;;;;;1.23;0.70;;;8.20;1.00;;;;;;5050223;28;20736;-75
2022/02/07 05:24:16;;;;;;;2.90;1.63;;;8.20;1.00;;;;;;5050929;28;20198;-74
2022/02/07 05:26:43;;;;;;;0.80;0.57;;;8.20;1.00;;;;;;5050092;28;20662;-74
2022/02/07 05:29:10;;;;;;;3.57;1.57;;;8.30;1.00;;;;;;5050862;28;20207;-74
2022/02/07 05:31:37;;;;;;;2.60;1.13;;;8.30;1.00;;;;;;5050209;28;20199;-74
2022/02/07 05:34:04;;;;;;;4.23;1.00;;;8.40;1.00;;;;;;5050459;28;20260;-78
2022/02/07 05:36:31;;;;;;;3.33;1.03;;;8.40;1.00;;;;;;5050129;28;20202;-74
2022/02/07 05:39:01;;;;;;;2.70;0.80;;;8.50;1.00;;;;;;5050331;28;20215;-75
2022/02/07 05:41:28;;;;;;;1.63;0.70;;;8.50;1.00;;;;;;5050499;28;20210;-76
2022/02/07 05:43:55;;;;;;;2.30;0.93;;;8.50;1.00;;;;;;5050715;28;20210;-75
2022/02/07 05:46:23;;;;;;;5.47;0.80;;;8.50;1.00;;;;;;5050449;28;20210;-76
2022/02/07 05:48:50;;;;;;;6.43;1.00;;;8.40;1.00;;;;;;5049774;28;20745;-77
2022/02/07 05:51:17;;;;;;;1.23;0.70;;;8.40;1.00;;;;;;5050263;28;20245;-75
2022/02/07 05:53:44;;;;;;;2.93;1.10;;;8.50;1.00;;;;;;5049971;28;20198;-75
2022/02/07 05:56:12;;;;;;;1.77;0.97;;;8.40;1.00;;;;;;5050471;28;20203;-75
2022/02/07 05:58:39;;;;;;;3.73;1.07;;;8.40;1.00;;;;;;5081260;28;20263;-76
2022/02/07 06:01:06;;;;;;;2.87;0.80;;;8.40;1.00;;;;;;5085419;28;20254;-76
2022/02/07 06:03:33;;;;;;;0.83;0.83;;;8.40;1.00;;;;;;5085826;28;20278;-76
2022/02/07 06:06:01;;;;;;;2.13;1.13;;;8.40;1.00;;;;;;5094506;28;20206;-76
2022/02/07 06:08:29;;;;;;;1.93;1.10;;;8.30;1.00;;;;;;5094220;28;20846;-77
2022/02/07 06:10:56;;;;;;;1.40;0.77;;;8.40;1.00;;;;;;5094618;28;20210;-75
2022/02/07 06:13:25;;;;;;;3.33;0.90;;;8.40;1.00;;;;;;5094312;28;20587;-75
2022/02/07 06:15:52;;;;;;;2.40;0.83;;;8.30;1.00;;;;;;5090241;28;20216;-75
2022/02/07 06:18:20;;;;;;;2.20;1.17;;;8.30;1.00;;;;;;5093766;28;20266;-75
2022/02/07 06:20:48;;;;;;;2.13;0.97;;;8.30;1.00;;;;;;5093798;28;20279;-76
2022/02/07 06:23:15;;;;;;;3.90;0.97;;;8.40;1.00;;;;;;5093841;28;20209;-77
2022/02/07 06:25:42;;;;;;;0.97;0.70;;;8.40;1.00;;;;;;5093519;28;20345;-75
2022/02/07 06:28:10;;;;;;;2.97;1.00;;;8.40;1.00;;;;;;5093650;28;20229;-76
2022/02/07 06:30:38;;;;;;;2.20;0.97;;;8.50;1.00;;;;;;5093144;28;20284;-76
2022/02/07 06:33:07;;;;;;;2.10;1.47;;;8.50;1.00;;;;;;5093706;28;20205;-77
2022/02/07 06:35:34;;;;;;;4.40;1.83;;;8.50;1.00;;;;;;5093265;28;20206;-75
2022/02/07 06:38:01;;;;;;;1.93;0.80;;;8.50;1.00;;;;;;5093638;28;20221;-74
2022/02/07 06:40:28;;;;;;;2.93;1.10;;;8.50;1.00;;;;;;5086970;28;20634;-75
2022/02/07 06:42:55;;;;;;;4.13;1.27;;;8.50;1.00;;;;;;5093880;28;20201;-74
2022/02/07 06:45:22;;;;;;;3.47;1.43;;;8.40;1.00;;;;;;5093282;28;20221;-75
2022/02/07 06:47:50;;;;;;;1.87;0.90;;;8.40;1.00;;;;;;5093035;28;20283;-75
2022/02/07 06:50:17;;;;;;;6.00;1.73;;;8.50;1.00;;;;;;5093481;28;20205;-74
2022/02/07 06:52:44;;;;;;;2.00;0.70;;;8.40;1.00;;;;;;5087928;28;20632;-75
2022/02/07 06:55:11;;;;;;;4.53;1.00;;;8.30;1.00;;;;;;5093434;28;20259;-75
2022/02/07 06:57:38;;;;;;;3.10;1.00;;;8.30;1.00;;;;;;5082767;28;20214;-75
2022/02/07 07:00:07;;;;;;;3.57;0.87;;;8.40;1.00;;;;;;5089160;28;20574;-75
2022/02/07 07:02:34;;;;;;;3.13;1.20;;;8.50;1.00;;;;;;5092709;28;20201;-75
2022/02/07 07:05:09;;;;;;;1.60;1.07;;;8.50;1.00;;;;;;5092925;28;20326;-75
2022/02/07 07:07:36;;;;;;;2.93;1.00;;;8.60;1.00;;;;;;5092780;28;20224;-75
2022/02/07 07:10:03;;;;;;;1.20;0.93;;;8.60;1.00;;;;;;5092570;28;20216;-75
2022/02/07 07:12:30;;;;;;;3.37;0.87;;;8.60;1.00;;;;;;5092075;28;20258;-75
2022/02/07 07:15:07;;;;;;;1.40;0.90;;;8.50;1.00;;;;;;5093162;28;20213;-75
2022/02/07 07:17:35;;;;;;;1.30;1.10;;;8.50;1.00;;;;;;5092404;28;20216;-75
2022/02/07 07:20:05;;;;;;;2.50;1.20;;;8.40;1.00;;;;;;5093116;28;20209;-75
2022/02/07 07:22:32;;;;;;;3.57;1.30;;;8.40;1.00;;;;;;5064751;28;20661;-74
2022/02/07 07:24:59;;;;;;;1.40;1.30;;;8.60;1.00;;;;;;5092779;28;20205;-78
2022/02/07 07:27:32;;;;;;;1.33;0.80;;;8.70;1.00;;;;;;5080829;28;20207;-81
2022/02/07 07:29:59;;;;;;;2.27;1.27;;;8.70;1.00;;;;;;5084584;28;20209;-77
2022/02/07 07:32:29;;;;;;;2.03;0.90;;;8.70;1.00;;;;;;5089670;28;20255;-75
2022/02/07 07:34:56;;;;;;;7.47;1.60;;;8.80;1.00;;;;;;5072432;28;20210;-75
2022/02/07 07:37:25;;;;;;;4.43;1.00;;;8.80;1.00;;;;;;5071984;28;20256;-76
2022/02/07 07:39:52;;;;;;;1.17;0.80;;;8.90;1.00;;;;;;5071021;28;20252;-76
2022/02/07 07:42:20;;;;;;;1.47;0.90;;;8.90;1.00;;;;;;5072437;28;20572;-75
2022/02/07 07:44:48;;;;;;;2.13;1.80;;;8.90;1.00;;;;;;5071051;28;20206;-78
2022/02/07 07:47:20;;;;;;;3.37;1.00;;;8.80;1.00;;;;;;5071287;28;20210;-81
2022/02/07 07:49:52;;;;;;;1.83;1.10;;;8.80;1.00;;;;;;5071271;28;20244;-76
2022/02/07 07:52:30;;;;;;;2.10;0.83;;;8.80;1.00;;;;;;5057136;28;20222;-76
2022/02/07 07:55:22;;;;;;;2.27;1.30;;;8.80;1.00;;;;;;5069896;28;20577;-76
2022/02/07 08:03:13;;;;;;;0.97;0.87;;;8.90;1.00;;;;;;5071260;28;20573;-76
2022/02/07 08:05:45;;;;;;;1.30;0.70;;;8.90;1.00;;;;;;5063318;28;20231;-82
2022/02/07 08:08:22;;;;;;;1.03;0.70;;;8.90;1.00;;;;;;5054512;28;20226;-76
2022/02/07 08:10:59;;;;;;;1.90;0.90;;;9.00;1.00;;;;;;5056500;28;20693;-76
2022/02/07 08:13:29;;;;;;;1.83;0.90;;;9.20;1.00;;;;;;5072041;28;20290;-76
2022/02/07 08:15:57;;;;;;;1.40;0.93;;;9.20;1.00;;;;;;5072691;28;20221;-84
2022/02/07 08:18:24;;;;;;;1.73;0.80;;;9.30;1.00;;;;;;5084684;28;20673;-82
2022/02/07 08:20:51;;;;;;;1.00;0.40;;;9.30;1.00;;;;;;5074445;28;20641;-76
2022/02/07 08:23:18;;;;;;;1.70;0.90;;;9.40;1.00;;;;;;5086484;28;20255;-77
2022/02/07 08:25:45;;;;;;;1.53;0.90;;;9.50;1.00;;;;;;5084137;28;20211;-78
2022/02/07 08:28:13;;;;;;;2.53;1.10;;;9.50;1.00;;;;;;5077026;28;20732;-77
2022/02/07 08:30:40;;;;;;;1.37;0.90;;;9.60;1.00;;;;;;5074471;28;20263;-79
2022/02/07 08:33:07;;;;;;;2.73;1.67;;;9.70;1.00;;;;;;5069965;28;20206;-76
2022/02/07 08:35:34;;;;;;;4.87;0.93;;;9.60;1.00;;;;;;5087972;28;20213;-76
2022/02/07 08:38:01;;;;;;;1.33;0.70;;;9.60;1.00;;;;;;5090299;28;20213;-77
2022/02/07 08:40:29;;;;;;;2.47;0.70;;;9.50;1.00;;;;;;5076357;28;20202;-77
2022/02/07 08:42:57;;;;;;;1.57;1.00;;;9.50;1.00;;;;;;5071278;28;20232;-76
2022/02/07 08:45:25;;;;;;;1.60;0.93;;;9.70;1.00;;;;;;5089480;28;20205;-82
2022/02/07 08:47:56;;;;;;;2.07;0.80;;;9.80;1.00;;;;;;5090608;28;20206;-77
2022/02/07 08:50:24;;;;;;;1.40;0.70;;;10.10;1.00;;;;;;5091214;28;20278;-77
2022/02/07 08:52:52;;;;;;;0.83;0.77;;;10.10;1.00;;;;;;5090807;28;20288;-80
2022/02/07 08:55:26;;;;;;;1.83;1.13;;;10.30;1.00;;;;;;5091058;28;20228;-76
2022/02/07 08:57:57;;;;;;;0.90;0.70;;;10.70;1.00;;;;;;5090279;28;20212;-81
2022/02/07 09:00:38;;;;;;;0.73;0.60;;;10.90;1.00;;;;;;5076201;28;20211;-76
2022/02/07 09:03:21;;;;;;;1.83;0.80;;;11.60;1.00;;;;;;5090623;28;20255;-80
2022/02/07 09:05:55;;;;;;;2.00;1.37;;;11.60;1.00;;;;;;5090603;28;20504;-77
2022/02/07 09:08:26;;;;;;;1.30;0.80;;;11.30;1.00;;;;;;5090800;28;20268;-78
2022/02/07 09:10:54;;;;;;;1.47;0.77;;;11.20;1.00;;;;;;5090494;28;20231;-78
2022/02/07 09:13:28;;;;;;;4.50;0.87;;;11.20;1.00;;;;;;5090531;28;20205;-76
2022/02/07 09:16:05;;;;;;;0.90;0.80;;;11.40;1.00;;;;;;5081672;28;20244;-77
2022/02/07 09:18:32;;;;;;;2.27;0.70;;;11.30;1.00;;;;;;5082839;28;20611;-78
2022/02/07 09:21:01;;;;;;;1.13;0.60;;;11.40;1.00;;;;;;5083005;28;20205;-79
2022/02/07 09:23:28;;;;;;;0.80;0.63;;;11.30;1.00;;;;;;5075336;28;20665;-81
2022/02/07 09:25:56;;;;;;;3.63;1.20;;;11.10;1.00;;;;;;5083662;28;20274;-79
2022/02/07 09:28:23;;;;;;;3.33;0.80;;;11.30;1.00;;;;;;5087329;28;20238;-80
2022/02/07 09:30:52;;;;;;;0.90;0.50;;;11.20;1.00;;;;;;5072003;28;20588;-80
2022/02/07 09:33:22;;;;;;;1.53;0.60;;;11.30;1.00;;;;;;5070902;28;20206;-79
2022/02/07 09:35:51;;;;;;;1.57;0.53;;;11.20;1.00;;;;;;5079523;28;20213;-77
2022/02/07 09:38:18;;;;;;;0.50;0.50;;;11.00;1.00;;;;;;5074215;28;20255;-81
2022/02/07 09:40:51;;;;;;;0.80;0.60;;;10.90;1.00;;;;;;5073927;28;20202;-76
2022/02/07 09:43:19;;;;;;;0.93;0.63;;;10.90;1.00;;;;;;5080481;28;20201;-77
2022/02/07 09:45:49;;;;;;;2.73;0.80;;;11.20;1.00;;;;;;5094332;28;20293;-77
2022/02/07 09:48:17;;;;;;;2.40;0.60;;;11.20;1.00;;;;;;5078442;28;20293;-77
2022/02/07 09:50:45;;;;;;;2.03;0.47;;;11.20;1.00;;;;;;5073849;28;20206;-77
2022/02/07 09:53:13;;;;;;;2.57;0.70;;;11.20;1.00;;;;;;5077430;28;20213;-77
2022/02/07 09:55:40;;;;;;;0.93;0.60;;;11.20;1.00;;;;;;5094085;28;20562;-77
2022/02/07 09:58:08;;;;;;;1.43;0.87;;;11.20;1.00;;;;;;5083166;28;20259;-80
2022/02/07 10:00:37;;;;;;;0.97;0.70;;;11.10;1.00;;;;;;5093996;28;20252;-83
2022/02/07 10:03:11;;;;;;;1.37;1.10;;;11.10;1.00;;;;;;5093944;28;20206;-78
2022/02/07 10:05:47;;;;;;;1.63;0.67;;;11.40;1.00;;;;;;5094018;28;20288;-77
2022/02/07 10:08:29;;;;;;;1.30;0.43;;;11.40;1.00;;;;;;5093978;28;20214;-77
2022/02/07 10:11:09;;;;;;;2.10;0.80;;;11.50;1.00;;;;;;5094370;28;20201;-77
2022/02/07 10:13:45;;;;;;;0.60;0.60;;;11.70;1.00;;;;;;5093742;28;20205;-77
2022/02/07 10:16:32;;;;;;;3.40;0.67;;;11.80;1.00;;;;;;5093719;28;20205;-79
2022/02/07 10:19:16;;;;;;;2.47;0.50;;;12.40;1.00;;;;;;5073084;28;20634;-77
2022/02/07 10:36:09;;;;;;;0.40;0.33;;;11.50;1.00;;;;;;5093389;28;20612;-77
2022/02/07 10:39:01;;;;;;;1.10;0.70;;;11.60;1.00;;;;;;5072783;28;20217;-82
2022/02/07 10:41:43;;;;;;;1.90;0.63;;;11.70;1.00;;;;;;5083196;28;20202;-77
2022/02/07 10:44:32;;;;;;;1.37;0.50;;;11.40;1.00;;;;;;5093056;28;20736;-77
2022/02/07 10:47:06;;;;;;;3.60;0.83;;;11.50;1.00;;;;;;5073957;28;20210;-77
2022/02/07 10:49:33;;;;;;;2.13;0.60;;;11.40;1.00;;;;;;5092925;28;20225;-82
2022/02/07 10:52:01;;;;;;;1.63;0.90;;;11.40;1.00;;;;;;5083107;28;20206;-82
2022/02/07 10:54:29;;;;;;;1.20;0.70;;;11.50;1.00;;;;;;5090185;28;20684;-77
2022/02/07 10:56:57;;;;;;;2.57;1.20;;;11.50;1.00;;;;;;5089905;28;20271;-76
2022/02/07 10:59:25;;;;;;;1.53;0.60;;;11.50;1.00;;;;;;5089915;28;20266;-80
2022/02/07 11:02:41;;;;;;;1.03;0.40;;;11.60;1.00;;;;;;5092712;28;20241;-77
2022/02/07 11:04:58;;;;;;;2.90;0.60;;;11.80;1.00;;;;;;5092715;28;20240;-83
2022/02/07 11:07:28;;;;;;;1.33;0.83;;;11.80;1.00;;;;;;5092929;28;20216;-77
2022/02/07 11:10:23;;;;;;;2.40;0.60;;;11.80;1.00;;;;;;5093352;28;20233;-77
2022/02/07 11:15:45;;;;;;;1.90;1.03;;;11.70;1.00;;;;;;5060358;28;20224;-75
2022/02/07 11:18:27;;;;;;;2.83;0.87;;;11.90;1.00;;;;;;5073776;28;20241;-77
2022/02/07 11:21:18;;;;;;;2.47;1.23;;;11.70;1.00;;;;;;5080261;28;20259;-77
2022/02/07 11:23:51;;;;;;;1.23;0.57;;;11.70;1.00;;;;;;5091017;28;20334;-76
2022/02/07 11:26:37;;;;;;;2.30;0.90;;;11.80;1.00;;;;;;5092665;28;20705;-77
2022/02/07 11:29:06;;;;;;;17.07;8.73;;;11.80;1.00;;;;;;5092736;28;20240;-79
2022/02/07 11:31:42;;;;;;;16.13;5.33;;;11.90;1.00;;;;;;5081610;28;20747;-81
2022/02/07 11:34:12;;;;;;;3.80;1.83;;;11.80;1.00;;;;;;5065639;28;20245;-79
2022/02/07 11:36:41;;;;;;;1.17;1.00;;;11.80;1.00;;;;;;5071161;28;20761;-80
2022/02/07 11:39:14;;;;;;;1.97;0.73;;;11.60;1.00;;;;;;5072242;28;20642;-79
2022/02/07 11:42:05;;;;;;;3.10;1.02;;;11.50;1.00;;;;;;5072115;28;20210;-79
2022/02/07 11:45:24;;;;;;;2.88;0.77;;;11.30;1.00;;;;;;5072064;28;20573;-79
2022/02/07 11:47:58;;;;;;;4.07;1.30;;;11.30;1.00;;;;;;5072413;28;20206;-79
2022/02/07 11:50:27;;;;;;;5.13;1.30;;;11.20;1.00;;;;;;5072404;28;20237;-79
2022/02/07 11:53:00;;;;;;;2.38;1.17;;;11.00;1.00;;;;;;5071281;28;20285;-84
2022/02/07 11:55:33;;;;;;;1.83;1.10;;;11.10;1.00;;;;;;5072320;28;20206;-81
2022/02/07 11:58:07;;;;;;;3.73;1.27;;;11.40;1.00;;;;;;5070372;28;20210;-78
2022/02/07 12:00:44;;;;;;;3.33;1.27;;;11.40;1.00;;;;;;5078267;28;20744;-79
2022/02/07 12:03:13;;;;;;;2.33;1.20;;;11.40;1.00;;;;;;5077763;28;20638;-78
2022/02/07 12:05:43;;;;;;;2.63;1.13;;;11.70;1.00;;;;;;5081544;28;20636;-78
2022/02/07 12:08:16;;;;;;;2.33;1.27;;;12.00;1.00;;;;;;5078319;28;20213;-80
2022/02/07 12:10:48;;;;;;;2.75;1.33;;;12.00;1.00;;;;;;5076772;28;20236;-80
2022/02/07 12:13:30;;;;;;;2.87;1.00;;;11.90;1.00;;;;;;5085947;28;20212;-79
2022/02/07 12:16:03;;;;;;;6.70;1.27;;;11.80;1.00;;;;;;5087943;28;20226;-79
2022/02/07 12:18:30;;;;;;;3.30;0.87;;;11.50;1.00;;;;;;5086349;28;20274;-78
2022/02/07 12:21:15;;;;;;;2.20;1.00;;;11.40;1.00;;;;;;5083590;28;20634;-77
2022/02/07 12:23:42;;;;;;;1.17;0.88;;;11.30;1.00;;;;;;5070688;28;20263;-77
2022/02/07 12:26:16;;;;;;;2.43;1.07;;;11.50;1.00;;;;;;5081146;28;20621;-74
2022/02/07 12:28:46;;;;;;;3.23;1.03;;;11.90;1.00;;;;;;5090669;28;20236;-75
2022/02/07 12:31:19;;;;;;;2.60;1.00;;;12.00;1.00;;;;;;5090163;28;20213;-81
2022/02/07 12:33:53;;;;;;;1.08;0.80;;;12.10;1.00;;;;;;5090874;28;20209;-73
2022/02/07 12:36:22;;;;;;;1.55;0.73;;;12.50;1.00;;;;;;5057336;28;20203;-74
2022/02/07 12:38:49;;;;;;;1.92;0.95;;;12.70;1.00;;;;;;5058501;28;20230;-81
2022/02/07 12:41:18;;;;;;;2.05;1.20;;;12.50;1.00;;;;;;5071629;28;20207;-78
2022/02/07 12:43:49;;;;;;;3.03;1.30;;;12.10;1.00;;;;;;5084969;28;20254;-85
2022/02/07 12:46:22;;;;;;;3.47;1.07;;;12.20;1.00;;;;;;5064981;28;20217;-75
2022/02/07 12:48:54;;;;;;;1.70;0.98;;;12.50;1.00;;;;;;5063239;28;20209;-78
2022/02/07 12:51:23;;;;;;;1.67;0.98;;;12.50;1.00;;;;;;5091883;28;20707;-84
2022/02/07 12:53:52;;;;;;;4.10;1.15;;;12.40;1.00;;;;;;5057631;28;21069;-74
2022/02/07 12:56:19;;;;;;;1.92;0.70;;;12.30;1.00;;;;;;5072025;28;20254;-76
2022/02/07 12:58:47;;;;;;;3.15;0.80;;;12.30;1.00;;;;;;5090583;28;20205;-74
2022/02/07 13:01:24;;;;;;;1.80;0.75;;;12.30;1.00;;;;;;5091240;28;20213;-74
2022/02/07 13:03:53;;;;;;;0.98;0.80;;;12.60;1.00;;;;;;5090124;28;20258;-76
2022/02/07 13:06:25;;;;;;;1.70;0.93;;;12.50;1.00;;;;;;5090873;28;20673;-75
2022/02/07 13:08:53;;;;;;;1.27;0.80;;;12.90;1.00;;;;;;5063615;28;20289;-74
2022/02/07 13:11:31;;;;;;;1.02;0.75;;;12.90;1.00;;;;;;5091124;28;20722;-74
2022/02/07 13:13:59;;;;;;;1.30;0.73;;;12.90;1.00;;;;;;5065358;28;20205;-79
2022/02/07 13:16:32;;;;;;;4.07;1.23;;;12.90;1.00;;;;;;5091190;28;20213;-74
2022/02/07 13:19:10;;;;;;;2.75;0.70;;;12.90;1.00;;;;;;5090334;28;20201;-74
2022/02/07 13:21:41;;;;;;;2.33;0.90;;;12.80;1.00;;;;;;5075161;28;20216;-77
2022/02/07 13:24:11;;;;;;;2.95;1.00;;;12.70;1.00;;;;;;5081877;28;20289;-74
2022/02/07 13:26:38;;;;;;;2.20;0.70;;;12.60;1.00;;;;;;5084475;28;20325;-84
2022/02/07 13:29:06;;;;;;;2.70;1.55;;;12.30;1.00;;;;;;5078543;28;20259;-74
2022/02/07 13:31:39;;;;;;;3.60;2.25;;;12.30;1.00;;;;;;5089769;28;20677;-75
2022/02/07 13:34:20;;;;;;;0.93;0.70;;;12.40;1.00;;;;;;5086045;28;20292;-74
2022/02/07 13:36:49;;;;;;;2.70;0.70;;;12.40;1.00;;;;;;5088699;28;20206;-83
2022/02/07 13:39:17;;;;;;;2.17;0.82;;;12.40;1.00;;;;;;5070567;28;20209;-74
2022/02/07 13:41:44;;;;;;;1.38;0.88;;;12.20;1.00;;;;;;5086682;28;20213;-75
2022/02/07 13:44:11;;;;;;;2.60;1.23;;;12.20;1.00;;;;;;5090755;28;20217;-78
2022/02/07 13:46:42;;;;;;;1.85;1.00;;;12.40;1.00;;;;;;5090402;28;20251;-77
2022/02/07 13:49:09;;;;;;;1.80;0.75;;;12.50;1.00;;;;;;5090750;28;20197;-74
2022/02/07 13:51:36;;;;;;;3.22;1.35;;;13.00;1.00;;;;;;5089836;28;20709;-75
2022/02/07 13:54:03;;;;;;;4.32;1.80;;;13.50;1.00;;;;;;5090430;28;20211;-75
2022/02/07 13:56:33;;;;;;;2.35;1.13;;;13.30;1.00;;;;;;5089807;28;20201;-74
2022/02/07 13:59:14;;;;;;;4.07;1.00;;;13.10;1.00;;;;;;5090644;28;20213;-73
2022/02/07 14:01:46;;;;;;;3.28;1.15;;;13.70;1.00;;;;;;5089787;28;20292;-73
2022/02/07 14:04:19;;;;;;;1.58;1.08;;;14.10;1.00;;;;;;5090301;28;20215;-75
2022/02/07 14:07:05;;;;;;;2.00;1.55;;;14.30;1.00;;;;;;5076065;28;20257;-81
2022/02/07 14:09:32;;;;;;;1.02;0.80;;;13.70;1.00;;;;;;5078092;28;20252;-74
2022/02/07 14:12:01;;;;;;;1.77;0.85;;;13.40;1.00;;;;;;5088237;28;20205;-75
2022/02/07 14:14:28;;;;;;;3.92;1.50;;;13.00;1.00;;;;;;5090788;28;20553;-74
2022/02/07 14:16:57;;;;;;;5.43;1.08;;;12.90;1.00;;;;;;5089925;28;20734;-74
2022/02/07 14:19:39;;;;;;;3.88;1.30;;;12.70;1.00;;;;;;5091885;28;20586;-74
2022/02/07 14:22:07;;;;;;;2.75;1.08;;;12.80;1.00;;;;;;5088458;28;20285;-75
2022/02/07 14:24:35;;;;;;;2.22;1.05;;;12.70;1.00;;;;;;5085440;28;20216;-74
2022/02/07 14:27:02;;;;;;;2.67;0.70;;;12.60;1.00;;;;;;5092119;28;20255;-73
2022/02/07 14:29:29;;;;;;;5.47;0.90;;;12.50;1.00;;;;;;5093391;28;20618;-74
2022/02/07 14:31:58;;;;;;;1.98;0.90;;;12.60;1.00;;;;;;5093631;28;20642;-74
2022/02/07 14:34:25;;;;;;;2.72;0.75;;;12.40;1.00;;;;;;5087610;28;20205;-74
2022/02/07 14:36:52;;;;;;;1.00;0.70;;;12.30;1.00;;;;;;5093034;28;20201;-74
2022/02/07 14:39:18;;;;;;;3.13;0.70;;;12.30;1.00;;;;;;5086268;28;20685;-80
2022/02/07 14:41:47;;;;;;;5.45;2.72;;;12.20;1.00;;;;;;5087103;28;20217;-74
2022/02/07 14:44:20;;;;;;;4.38;1.25;;;12.30;1.00;;;;;;5066337;28;20213;-74
2022/02/07 14:46:54;;;;;;;4.18;1.30;;;12.30;1.00;;;;;;5093292;28;20205;-74
2022/02/07 14:49:23;;;;;;;1.75;0.82;;;12.30;1.00;;;;;;5060539;28;20617;-75